createdAt,value
2022-10-24T00:01:16.796Z,1.20
2022-10-24T00:03:43.729Z,1.30
2022-10-24T00:06:11.772Z,1.53
2022-10-24T00:08:39.598Z,1.23
2022-10-24T00:11:09.144Z,1.33
2022-10-24T00:13:35.744Z,1.90
2022-10-24T00:16:04.286Z,1.73
2022-10-24T00:18:30.788Z,1.53
2022-10-24T00:20:57.816Z,1.50
2022-10-24T00:23:24.328Z,1.60
2022-10-24T00:25:50.846Z,1.40
2022-10-24T00:28:17.344Z,1.50
2022-10-24T00:30:43.855Z,1.50
2022-10-24T00:33:11.863Z,1.80
2022-10-24T00:35:38.346Z,1.70
2022-10-24T00:38:04.847Z,1.80
2022-10-24T00:40:31.328Z,1.63
2022-10-24T00:42:57.826Z,1.70
2022-10-24T00:45:40.626Z,2.23
2022-10-24T00:48:16.081Z,1.47
2022-10-24T00:50:43.239Z,1.83
2022-10-24T00:53:09.920Z,1.70
2022-10-24T00:55:37.043Z,1.80
2022-10-24T00:58:04.251Z,1.40
2022-10-24T01:00:33.460Z,1.33
2022-10-24T01:03:00.603Z,1.50
2022-10-24T01:05:35.282Z,1.90
2022-10-24T01:08:10.991Z,1.50
2022-10-24T01:10:46.027Z,2.00
2022-10-24T01:13:21.030Z,2.20
2022-10-24T01:15:51.587Z,1.53
2022-10-24T01:18:23.471Z,1.67
2022-10-24T01:21:12.445Z,1.87
2022-10-24T01:23:57.488Z,2.03
2022-10-24T01:26:58.830Z,1.97
2022-10-24T01:29:49.272Z,2.13
2022-10-24T01:32:22.761Z,1.93
2022-10-24T01:34:58.992Z,2.10
2022-10-24T01:37:30.716Z,2.40
2022-10-24T01:40:03.043Z,1.87
2022-10-24T01:42:32.232Z,2.40
2022-10-24T01:45:01.894Z,2.10
2022-10-24T01:47:34.106Z,2.10
2022-10-24T01:50:04.148Z,2.00
2022-10-24T01:52:34.516Z,1.77
2022-10-24T01:55:01.564Z,1.57
2022-10-24T01:57:28.526Z,1.60
2022-10-24T01:59:55.476Z,2.20
2022-10-24T02:02:27.967Z,1.70
2022-10-24T02:04:58.636Z,1.63
2022-10-24T02:07:26.531Z,1.53
2022-10-24T02:09:57.805Z,1.60
2022-10-24T02:12:26.772Z,1.50
2022-10-24T02:14:57.833Z,1.40
2022-10-24T02:17:25.876Z,1.97
2022-10-24T02:19:53.239Z,1.73
2022-10-24T02:22:27.974Z,2.00
2022-10-24T02:24:57.864Z,2.47
2022-10-24T02:27:29.198Z,1.97
2022-10-24T02:30:00.734Z,2.07
2022-10-24T02:32:31.702Z,2.07
2022-10-24T02:35:00.593Z,1.83
2022-10-24T02:37:30.064Z,1.97
2022-10-24T02:39:59.014Z,1.60
2022-10-24T02:42:27.346Z,1.70
2022-10-24T02:44:54.143Z,1.97
2022-10-24T02:47:22.254Z,2.10
2022-10-24T02:49:50.182Z,1.60
2022-10-24T02:52:17.539Z,1.70
2022-10-24T02:54:44.046Z,2.00
2022-10-24T02:57:10.886Z,1.50
2022-10-24T02:59:37.357Z,2.00
2022-10-24T03:02:03.827Z,1.67
2022-10-24T03:04:30.345Z,1.57
2022-10-24T03:06:58.219Z,1.37
2022-10-24T03:09:24.799Z,1.70
2022-10-24T03:11:51.339Z,1.97
2022-10-24T03:14:17.865Z,1.60
2022-10-24T03:16:44.394Z,1.60
2022-10-24T03:19:10.918Z,1.70
2022-10-24T03:21:37.407Z,1.63
2022-10-24T03:24:05.857Z,1.80
2022-10-24T03:26:32.456Z,1.70
2022-10-24T03:28:58.937Z,1.87
2022-10-24T03:31:26.029Z,1.70
2022-10-24T03:33:52.538Z,1.83
2022-10-24T03:36:19.045Z,1.30
2022-10-24T03:38:45.565Z,2.07
2022-10-24T03:41:13.441Z,1.70
2022-10-24T03:43:39.938Z,1.90
2022-10-24T03:46:06.435Z,1.50
2022-10-24T03:48:33.177Z,1.30
2022-10-24T03:50:59.695Z,1.57
2022-10-24T03:53:26.311Z,1.60
2022-10-24T03:55:52.961Z,2.03
2022-10-24T03:58:20.915Z,2.40
2022-10-24T04:00:47.475Z,2.40
2022-10-24T04:03:14.005Z,2.17
2022-10-24T04:05:40.479Z,1.70
2022-10-24T04:08:07.117Z,1.90
2022-10-24T04:10:33.706Z,1.43
2022-10-24T04:13:00.382Z,1.50
2022-10-24T04:15:28.226Z,2.10
2022-10-24T04:17:54.848Z,1.57
2022-10-24T04:20:21.334Z,1.60
2022-10-24T04:22:48.013Z,1.50
2022-10-24T04:25:14.764Z,1.50
2022-10-24T04:27:41.328Z,1.77
2022-10-24T04:30:13.863Z,1.73
2022-10-24T04:32:44.750Z,2.37
2022-10-24T04:35:11.947Z,1.63
2022-10-24T04:37:38.434Z,2.20
2022-10-24T04:40:06.190Z,1.70
2022-10-24T04:42:32.681Z,2.40
2022-10-24T04:44:59.230Z,2.30
2022-10-24T04:47:25.982Z,1.87
2022-10-24T04:49:53.826Z,1.80
2022-10-24T04:52:20.377Z,2.20
2022-10-24T04:54:46.876Z,1.90
2022-10-24T04:57:13.376Z,2.00
2022-10-24T04:59:39.972Z,1.70
2022-10-24T05:02:06.519Z,1.70
2022-10-24T05:04:33.128Z,1.50
2022-10-24T05:07:01.298Z,1.50
2022-10-24T05:09:27.850Z,1.87
2022-10-24T05:11:54.857Z,1.67
2022-10-24T05:14:21.352Z,1.50
2022-10-24T05:16:47.850Z,1.73
2022-10-24T05:19:14.890Z,1.67
2022-10-24T05:21:41.384Z,1.60
2022-10-24T05:24:09.635Z,1.83
2022-10-24T05:26:36.153Z,1.93
2022-10-24T05:29:02.846Z,1.80
2022-10-24T05:31:29.392Z,2.00
2022-10-24T05:33:55.978Z,2.10
2022-10-24T05:36:22.516Z,1.70
2022-10-24T05:38:49.001Z,1.50
2022-10-24T05:41:16.824Z,2.50
2022-10-24T05:43:43.327Z,1.93
2022-10-24T05:46:09.805Z,1.70
2022-10-24T05:48:37.550Z,1.70
2022-10-24T05:51:04.503Z,2.00
2022-10-24T05:53:31.946Z,1.57
2022-10-24T05:55:58.435Z,2.10
2022-10-24T05:58:26.260Z,2.17
2022-10-24T06:00:54.238Z,1.83
2022-10-24T06:03:20.950Z,1.70
2022-10-24T06:05:47.468Z,1.50
2022-10-24T06:08:14.002Z,1.80
2022-10-24T06:10:40.535Z,1.50
2022-10-24T06:13:07.486Z,1.80
2022-10-24T06:15:35.334Z,1.80
2022-10-24T06:18:01.831Z,1.93
2022-10-24T06:20:28.426Z,1.60
2022-10-24T06:22:54.954Z,1.60
2022-10-24T06:25:21.493Z,1.57
2022-10-24T06:27:48.023Z,1.90
2022-10-24T06:30:14.525Z,1.73
2022-10-24T06:32:44.566Z,1.97
2022-10-24T06:35:11.497Z,1.47
2022-10-24T06:37:37.997Z,1.50
2022-10-24T06:40:05.229Z,1.70
2022-10-24T06:42:32.029Z,1.67
2022-10-24T06:47:31.270Z,2.10
2022-10-24T06:49:59.129Z,2.10
2022-10-24T06:52:25.670Z,1.70
2022-10-24T06:54:52.169Z,1.63
2022-10-24T06:57:18.684Z,1.83
2022-10-24T06:59:45.489Z,1.70
2022-10-24T07:02:13.865Z,2.00
2022-10-24T07:04:40.641Z,1.40
2022-10-24T07:07:14.207Z,1.50
2022-10-24T07:09:40.713Z,1.77
2022-10-24T07:12:07.411Z,1.53
2022-10-24T07:14:33.993Z,1.50
2022-10-24T07:17:00.470Z,1.60
2022-10-24T07:19:27.013Z,1.60
2022-10-24T07:21:53.545Z,1.53
2022-10-24T07:24:21.401Z,1.50
2022-10-24T07:26:48.055Z,1.63
2022-10-24T07:29:14.568Z,1.77
2022-10-24T07:31:41.079Z,2.10
2022-10-24T07:34:09.591Z,1.83
2022-10-24T07:36:40.174Z,1.80
2022-10-24T07:39:09.628Z,1.83
2022-10-24T07:41:39.129Z,1.70
2022-10-24T07:44:05.654Z,2.10
2022-10-24T07:46:32.717Z,1.73
2022-10-24T07:48:59.233Z,2.13
2022-10-24T07:51:26.231Z,1.60
2022-10-24T07:53:52.749Z,1.80
2022-10-24T07:56:19.277Z,2.07
2022-10-24T07:58:47.518Z,2.03
2022-10-24T08:01:16.839Z,1.97
2022-10-24T08:03:43.587Z,2.17
2022-10-24T08:06:12.922Z,2.47
2022-10-24T08:08:40.351Z,2.00
2022-10-24T08:11:07.721Z,1.73
2022-10-24T08:13:34.240Z,2.00
2022-10-24T08:16:02.094Z,1.60
2022-10-24T08:18:30.351Z,1.93
2022-10-24T08:20:58.627Z,2.00
2022-10-24T08:23:25.749Z,1.60
2022-10-24T08:25:52.457Z,2.30
2022-10-24T08:28:19.335Z,2.03
2022-10-24T08:30:45.804Z,2.20
2022-10-24T08:33:18.584Z,2.10
2022-10-24T08:35:46.171Z,2.30
2022-10-24T08:38:12.684Z,2.37
2022-10-24T08:40:39.159Z,1.77
2022-10-24T08:43:05.836Z,2.00
2022-10-24T08:45:38.388Z,2.17
2022-10-24T08:48:08.349Z,2.17
2022-10-24T08:50:38.042Z,2.03
2022-10-24T08:53:07.373Z,1.80
2022-10-24T08:55:54.387Z,1.63
2022-10-24T08:58:25.577Z,1.70
2022-10-24T09:00:54.927Z,1.70
2022-10-24T09:03:43.925Z,2.40
2022-10-24T09:06:20.556Z,1.60
2022-10-24T09:08:52.483Z,1.87
2022-10-24T09:11:24.571Z,1.90
2022-10-24T09:13:51.147Z,1.70
2022-10-24T09:16:21.966Z,1.70
2022-10-24T09:18:52.597Z,2.17
2022-10-24T09:21:22.515Z,1.63
2022-10-24T09:23:50.462Z,1.70
2022-10-24T09:26:24.407Z,1.97
2022-10-24T09:28:50.936Z,2.07
2022-10-24T09:31:20.151Z,2.47
2022-10-24T09:33:49.130Z,1.80
2022-10-24T09:36:17.363Z,1.70
2022-10-24T09:38:46.224Z,1.87
2022-10-24T09:41:18.638Z,1.40
2022-10-24T09:43:48.355Z,1.43
2022-10-24T09:46:16.769Z,1.73
2022-10-24T09:48:51.135Z,1.83
2022-10-24T09:51:22.012Z,2.20
2022-10-24T09:54:03.934Z,2.33
2022-10-24T09:56:36.371Z,2.07
2022-10-24T09:59:26.912Z,2.07
2022-10-24T10:02:07.607Z,2.37
2022-10-24T10:04:34.186Z,1.87
2022-10-24T10:07:09.318Z,2.00
2022-10-24T10:09:37.391Z,1.70
2022-10-24T10:12:04.279Z,2.13
2022-10-24T10:14:30.820Z,2.10
2022-10-24T10:17:02.361Z,1.90
2022-10-24T10:19:34.987Z,2.60
2022-10-24T10:22:02.880Z,2.33
2022-10-24T10:24:39.908Z,1.60
2022-10-24T10:27:28.465Z,1.50
2022-10-24T10:30:18.838Z,1.60
2022-10-24T10:32:57.740Z,1.80
2022-10-24T10:35:27.974Z,2.10
2022-10-24T10:38:01.128Z,1.93
2022-10-24T10:40:34.044Z,1.80
2022-10-24T10:43:17.168Z,1.50
2022-10-24T10:45:46.601Z,1.97
2022-10-24T10:48:26.022Z,1.87
2022-10-24T10:50:58.178Z,1.90
2022-10-24T10:53:31.552Z,2.03
2022-10-24T10:56:03.410Z,1.97
2022-10-24T10:58:40.193Z,1.40
2022-10-24T11:01:14.383Z,1.63
2022-10-24T11:03:47.638Z,1.80
2022-10-24T11:06:29.049Z,1.73
2022-10-24T11:09:15.209Z,1.90
2022-10-24T11:11:46.912Z,1.63
2022-10-24T11:14:26.034Z,2.03
2022-10-24T11:16:56.786Z,1.70
2022-10-24T11:19:28.304Z,1.60
2022-10-24T11:21:56.804Z,2.03
2022-10-24T11:24:24.528Z,1.83
2022-10-24T11:26:56.041Z,1.73
2022-10-24T11:29:28.836Z,2.20
2022-10-24T11:31:57.529Z,1.87
2022-10-24T11:34:28.995Z,2.23
2022-10-24T11:37:01.484Z,1.80
2022-10-24T11:39:31.271Z,1.70
2022-10-24T11:42:04.580Z,2.27
2022-10-24T11:44:41.220Z,2.10
2022-10-24T11:47:30.765Z,2.10
2022-10-24T11:50:04.619Z,2.10
2022-10-24T11:52:35.170Z,1.77
2022-10-24T11:55:07.708Z,1.70
2022-10-24T11:57:35.968Z,1.30
2022-10-24T12:00:03.928Z,1.80
2022-10-24T12:03:22.822Z,2.00
2022-10-24T12:06:03.073Z,1.47
2022-10-24T12:08:49.680Z,1.87
2022-10-24T12:11:31.036Z,1.77
2022-10-24T12:14:34.260Z,1.67
2022-10-24T12:17:18.766Z,1.67
2022-10-24T12:19:45.951Z,1.20
2022-10-24T12:22:17.024Z,1.40
2022-10-24T12:24:44.001Z,1.90
2022-10-24T12:27:26.830Z,1.37
2022-10-24T12:30:04.346Z,2.00
2022-10-24T12:32:38.455Z,1.27
2022-10-24T12:35:45.224Z,1.40
2022-10-24T12:38:16.788Z,1.60
2022-10-24T12:40:52.917Z,1.30
2022-10-24T12:43:31.684Z,1.50
2022-10-24T12:46:01.097Z,1.40
2022-10-24T12:48:33.197Z,1.70
2022-10-24T12:51:06.104Z,1.77
2022-10-24T12:54:03.934Z,1.30
2022-10-24T12:56:32.453Z,1.50
2022-10-24T12:59:16.319Z,1.17
2022-10-24T13:01:45.579Z,1.50
2022-10-24T13:04:38.848Z,1.47
2022-10-24T13:07:48.452Z,1.10
2022-10-24T13:10:42.662Z,1.70
2022-10-24T13:13:32.312Z,1.20
2022-10-24T13:16:06.927Z,1.50
2022-10-24T13:18:47.996Z,1.23
2022-10-24T13:21:19.621Z,1.40
2022-10-24T13:23:48.114Z,1.17
2022-10-24T13:26:35.899Z,1.50
2022-10-24T13:29:02.768Z,1.27
2022-10-24T13:31:41.744Z,1.33
2022-10-24T13:34:30.393Z,1.37
2022-10-24T13:37:04.942Z,1.60
2022-10-24T13:39:38.720Z,1.30
2022-10-24T13:42:14.466Z,1.80
2022-10-24T13:44:45.395Z,1.90
2022-10-24T13:47:16.861Z,1.57
2022-10-24T13:49:52.255Z,1.57
2022-10-24T13:52:24.689Z,1.70
2022-10-24T13:54:56.714Z,1.40
2022-10-24T13:57:25.360Z,1.37
2022-10-24T13:59:57.764Z,1.50
2022-10-24T14:02:29.896Z,1.53
2022-10-24T14:05:01.147Z,1.50
2022-10-24T14:07:30.603Z,1.30
2022-10-24T14:10:02.827Z,1.10
2022-10-24T14:12:32.260Z,1.60
2022-10-24T14:14:59.810Z,1.30
2022-10-24T14:17:28.636Z,1.10
2022-10-24T14:19:57.627Z,1.40
2022-10-24T14:22:28.236Z,1.13
2022-10-24T14:24:55.754Z,1.20
2022-10-24T14:27:22.999Z,1.37
2022-10-24T14:29:56.345Z,1.10
2022-10-24T14:32:24.656Z,1.30
2022-10-24T14:34:52.913Z,1.57
2022-10-24T14:37:30.988Z,1.30
2022-10-24T14:39:58.582Z,1.40
2022-10-24T14:42:25.663Z,1.07
2022-10-24T14:44:54.988Z,1.50
2022-10-24T14:47:27.945Z,1.40
2022-10-24T14:49:54.717Z,1.37
2022-10-24T14:52:25.502Z,2.10
2022-10-24T14:54:56.643Z,3.33
2022-10-24T14:57:24.186Z,2.40
2022-10-24T14:59:53.176Z,2.30
2022-10-24T15:02:23.842Z,1.87
2022-10-24T15:04:51.266Z,1.80
2022-10-24T15:07:29.376Z,1.87
2022-10-24T15:09:59.442Z,1.47
2022-10-24T15:12:32.178Z,1.43
2022-10-24T15:15:17.724Z,1.73
2022-10-24T15:17:47.043Z,1.93
2022-10-24T15:20:16.573Z,1.50
2022-10-24T15:22:48.925Z,1.90
2022-10-24T15:27:53.861Z,1.80
2022-10-24T15:30:22.192Z,2.07
2022-10-24T15:32:50.267Z,1.60
2022-10-24T15:35:17.294Z,1.60
2022-10-24T15:37:53.515Z,1.67
2022-10-24T15:40:23.751Z,1.80
2022-10-24T15:42:50.348Z,1.47
2022-10-24T15:45:17.843Z,1.70
2022-10-24T15:47:44.516Z,1.20
2022-10-24T15:50:13.831Z,1.30
2022-10-24T15:52:40.353Z,1.50
2022-10-24T15:55:09.840Z,1.60
2022-10-24T15:57:37.693Z,1.40
2022-10-24T16:00:04.829Z,1.27
2022-10-24T16:02:31.366Z,1.57
2022-10-24T16:04:57.979Z,1.53
2022-10-24T16:07:24.492Z,1.50
2022-10-24T16:09:51.034Z,1.50
2022-10-24T16:12:17.627Z,1.43
2022-10-24T16:14:45.506Z,1.30
2022-10-24T16:17:12.023Z,1.23
2022-10-24T16:19:38.527Z,1.50
2022-10-24T16:22:05.117Z,1.40
2022-10-24T16:24:31.642Z,1.40
2022-10-24T16:26:58.209Z,1.70
2022-10-24T16:29:24.702Z,1.73
2022-10-24T16:31:52.656Z,1.70
2022-10-24T16:34:19.203Z,1.47
2022-10-24T16:36:45.720Z,1.40
2022-10-24T16:39:12.288Z,1.47
2022-10-24T16:41:38.784Z,1.40
2022-10-24T16:44:05.414Z,1.93
2022-10-24T16:46:31.961Z,1.97
2022-10-24T16:48:59.893Z,1.80
2022-10-24T16:51:29.040Z,2.17
2022-10-24T16:53:55.588Z,3.63
2022-10-24T16:56:22.087Z,3.83
2022-10-24T16:58:48.607Z,4.47
2022-10-24T17:01:15.786Z,7.53
2022-10-24T17:03:43.048Z,6.53
2022-10-24T17:06:11.785Z,6.60
2022-10-24T17:08:38.432Z,9.50
2022-10-24T17:11:09.515Z,13.73
2022-10-24T17:13:42.792Z,13.70
2022-10-24T17:16:10.341Z,20.07
2022-10-24T17:18:36.896Z,18.60
2022-10-24T17:21:03.802Z,12.07
2022-10-24T17:23:32.180Z,9.30
2022-10-24T17:25:59.439Z,6.53
2022-10-24T17:28:30.975Z,4.30
2022-10-24T17:31:00.022Z,3.87
2022-10-24T17:33:26.773Z,2.63
2022-10-24T17:35:56.449Z,2.53
2022-10-24T17:38:37.530Z,2.30
2022-10-24T17:41:13.598Z,2.43
2022-10-24T17:43:40.557Z,3.13
2022-10-24T17:46:11.784Z,6.93
2022-10-24T17:48:38.500Z,8.47
2022-10-24T17:51:05.348Z,6.40
2022-10-24T17:53:33.517Z,6.13
2022-10-24T17:56:00.123Z,5.87
2022-10-24T17:58:26.680Z,5.50
2022-10-24T18:00:53.420Z,5.60
2022-10-24T18:03:20.034Z,5.93
2022-10-24T18:05:46.757Z,6.20
2022-10-24T18:08:13.576Z,4.30
2022-10-24T18:10:42.003Z,4.07
2022-10-24T18:13:08.645Z,3.17
2022-10-24T18:15:35.708Z,2.80
2022-10-24T18:18:02.249Z,3.07
2022-10-24T18:20:28.904Z,2.77
2022-10-24T18:22:55.503Z,3.20
2022-10-24T18:25:23.095Z,2.70
2022-10-24T18:27:51.342Z,2.63
2022-10-24T18:30:18.572Z,2.50
2022-10-24T18:32:45.908Z,2.50
2022-10-24T18:35:12.695Z,3.23
2022-10-24T18:37:39.389Z,3.10
2022-10-24T18:40:08.059Z,2.60
2022-10-24T18:42:40.785Z,2.33
2022-10-24T18:45:13.197Z,2.50
2022-10-24T18:47:40.154Z,3.67
2022-10-24T18:50:11.861Z,3.13
2022-10-24T18:52:43.000Z,3.00
2022-10-24T18:55:16.783Z,2.70
2022-10-24T18:57:43.961Z,2.87
2022-10-24T19:00:15.552Z,4.20
2022-10-24T19:02:48.634Z,3.60
2022-10-24T19:05:19.570Z,3.00
2022-10-24T19:07:47.279Z,3.50
2022-10-24T19:10:16.924Z,2.77
2022-10-24T19:12:43.948Z,3.27
2022-10-24T19:15:13.770Z,2.43
2022-10-24T19:17:40.893Z,2.40
2022-10-24T19:20:13.044Z,2.13
2022-10-24T19:22:39.577Z,2.80
2022-10-24T19:25:06.923Z,2.63
2022-10-24T19:27:33.445Z,2.80
2022-10-24T19:29:59.963Z,2.63
2022-10-24T19:32:27.807Z,2.57
2022-10-24T19:34:54.297Z,2.40
2022-10-24T19:37:20.851Z,1.90
2022-10-24T19:39:47.384Z,1.87
2022-10-24T19:42:14.380Z,1.90
2022-10-24T19:44:40.952Z,2.00
2022-10-24T19:47:07.482Z,2.53
2022-10-24T19:49:35.402Z,2.40
2022-10-24T19:52:01.923Z,2.70
2022-10-24T19:54:28.620Z,2.17
2022-10-24T19:56:55.360Z,2.17
2022-10-24T19:59:22.048Z,1.90
2022-10-24T20:01:48.748Z,2.00
2022-10-24T20:04:15.367Z,1.87
2022-10-24T20:06:43.317Z,1.83
2022-10-24T20:09:10.590Z,1.73
2022-10-24T20:11:37.226Z,2.53
2022-10-24T20:14:03.731Z,2.30
2022-10-24T20:16:30.261Z,2.10
2022-10-24T20:18:56.760Z,1.80
2022-10-24T20:21:23.355Z,1.97
2022-10-24T20:23:51.338Z,1.77
2022-10-24T20:26:20.073Z,1.67
2022-10-24T20:28:48.312Z,1.37
2022-10-24T20:31:20.015Z,1.80
2022-10-24T20:33:46.588Z,1.63
2022-10-24T20:36:13.134Z,1.90
2022-10-24T20:38:39.658Z,1.60
2022-10-24T20:41:07.504Z,1.33
2022-10-24T20:43:34.139Z,1.53
2022-10-24T20:46:04.008Z,1.70
2022-10-24T20:48:30.545Z,1.63
2022-10-24T20:51:04.377Z,1.90
2022-10-24T20:53:31.055Z,2.03
2022-10-24T20:55:57.558Z,1.83
2022-10-24T20:58:25.468Z,1.67
2022-10-24T21:00:51.973Z,1.70
2022-10-24T21:03:18.474Z,1.70
2022-10-24T21:05:44.961Z,1.70
2022-10-24T21:08:11.466Z,1.80
2022-10-24T21:10:37.975Z,1.83
2022-10-24T21:13:04.473Z,1.80
2022-10-24T21:15:32.358Z,2.20
2022-10-24T21:17:58.864Z,1.60
2022-10-24T21:20:25.477Z,1.80
2022-10-24T21:22:51.977Z,1.70
2022-10-24T21:25:18.525Z,1.87
2022-10-24T21:27:45.293Z,1.70
2022-10-24T21:30:14.733Z,1.80
2022-10-24T21:32:42.937Z,1.87
2022-10-24T21:35:09.443Z,1.93
2022-10-24T21:37:35.934Z,1.90
2022-10-24T21:40:02.550Z,2.03
2022-10-24T21:42:29.872Z,1.90
2022-10-24T21:44:56.481Z,2.00
2022-10-24T21:47:23.057Z,1.83
2022-10-24T21:49:50.912Z,1.93
2022-10-24T21:52:17.464Z,1.63
2022-10-24T21:54:43.942Z,1.90
2022-10-24T21:57:10.406Z,1.70
2022-10-24T21:59:36.944Z,1.47
2022-10-24T22:02:03.558Z,1.30
2022-10-24T22:04:30.153Z,1.50
2022-10-24T22:06:57.981Z,1.20
2022-10-24T22:09:24.487Z,1.37
2022-10-24T22:11:51.623Z,1.07
2022-10-24T22:14:18.320Z,1.40
2022-10-24T22:16:45.544Z,1.30
2022-10-24T22:19:13.346Z,1.17
2022-10-24T22:21:41.871Z,1.00
2022-10-24T22:24:12.034Z,0.90
2022-10-24T22:26:39.020Z,1.00
2022-10-24T22:29:06.834Z,0.90
2022-10-24T22:31:34.322Z,0.93
2022-10-24T22:34:01.426Z,0.97
2022-10-24T22:36:40.206Z,1.00
2022-10-24T22:39:14.368Z,1.10
2022-10-24T22:41:41.423Z,1.00
2022-10-24T22:44:10.603Z,0.90
2022-10-24T22:46:53.830Z,1.00
2022-10-24T22:49:25.888Z,1.07
2022-10-24T22:51:52.968Z,0.70
2022-10-24T22:54:24.057Z,0.80
2022-10-24T22:56:51.369Z,0.80
2022-10-24T22:59:18.499Z,0.90
2022-10-24T23:01:56.314Z,0.97
2022-10-24T23:04:30.932Z,0.67
2022-10-24T23:07:04.654Z,0.87
2022-10-24T23:09:32.494Z,0.63
2022-10-24T23:11:59.538Z,0.70
2022-10-24T23:14:26.766Z,0.90
2022-10-24T23:16:57.842Z,0.70
2022-10-24T23:19:26.071Z,0.83
2022-10-24T23:21:55.827Z,1.00
2022-10-24T23:24:22.659Z,0.83
2022-10-24T23:27:10.161Z,0.60
2022-10-24T23:29:38.226Z,0.73
2022-10-24T23:32:05.791Z,0.67
2022-10-24T23:34:32.901Z,0.80
2022-10-24T23:37:02.523Z,0.70
2022-10-24T23:39:32.622Z,0.83
2022-10-24T23:42:01.711Z,1.10
2022-10-24T23:44:28.888Z,0.60
2022-10-24T23:47:00.971Z,0.57
2022-10-24T23:49:35.523Z,0.87
2022-10-24T23:52:09.553Z,0.80
2022-10-24T23:54:36.646Z,0.70
2022-10-24T23:57:14.427Z,0.70
2022-10-24T23:59:40.931Z,0.60
